Main page
METAR-TAF:

METAR-TAF

Airports :

Porto, Portugal

Porto Airport

latitude: 41-14N, longitude: 008-41W, elevation: 69 m

Current weather observation

The report was made 28 minutes ago, at 23:00 UTC
Calm wind
Temperature 16°C
Humidity 88%
Pressure 1017 hPa
Visibility 10 km or more
no clouds below 1500 m and no cumulonimbus

METAR: LPPR 222300Z 00000KT CAVOK 16/14 Q1017

Time: 00:28 (23:28 UTC)

Forecast

The report was made 6 hours and 28 minutes ago, at 17:00 UTC
Forecast valid from 22 at 18 UTC to 23 at 18 UTC
Wind 12 kt from the Northwest
Visibility 10 km or more
no clouds below 1500 m and no cumulonimbus
Becoming
from 22 at 19 UTC to 22 at 21 UTC
Wind 3 kt from variable directions
Becoming
from 23 at 03 UTC to 23 at 06 UTC
Wind 10 kt from the East
Becoming
from 23 at 12 UTC to 23 at 15 UTC
Wind 12 kt from the North/Northwest

TAF: LPPR 221700Z 2218/2318 31012KT CAVOK BECMG 2219/2221 VRB03KT BECMG 2303/2306 08010KT BECMG 2312/2315 33012KT

Weather observations and forecasts of more than 4000 airports (METAR and TAF reports).

The available stations are represented by yellow and red dots on the map.

Hover mouse over dot to see the name of the station.

Then click to see weather observations and forecasts.

To change the map : click on the green buttons with a black cross to zoom in, on the green button with a dash to zoom out, or on the green arrows for adjacent maps.


METAR-TAF: